Time;durP1;ratioP1;P1;durP2;ratioP2;P2;SDS_P1;SDS_P2;PMS_P1;PMS_P2;Temp;Humidity;BMP_temperature;BMP_pressure;BME280_temperature;BME280_humidity;BME280_pressure;Samples;Min_cycle;Max_cycle;Signal;HPM_P1;HPM_P2
2021/12/17 11:59:39;;;;;;;25.20;12.90;;;;;;;3.05;86.29;99887.39;407595;1355;639632;-41
2021/12/17 12:10:03;;;;;;;24.50;10.20;;;;;;;3.16;86.08;99888.05;413612;1322;5546367;-40
2021/12/17 12:20:11;;;;;;;23.50;8.50;;;;;;;3.27;85.91;99884.30;418016;1320;108866;-40
2021/12/17 12:30:35;;;;;;;19.20;8.90;;;;;;;3.34;85.57;99879.27;417496;1322;95873;-41
2021/12/17 12:40:51;;;;;;;43.20;18.30;;;;;;;3.43;85.34;99879.06;417975;1323;108352;-41
2021/12/17 12:51:13;;;;;;;20.70;8.30;;;;;;;3.47;85.27;99868.79;418468;1320;109438;-40
2021/12/17 13:01:19;;;;;;;18.30;8.10;;;;;;;3.49;85.06;99856.11;418311;1322;107704;-40
2021/12/17 13:11:27;;;;;;;30.00;14.30;;;;;;;3.51;84.98;99856.13;418353;1317;95913;-42
2021/12/17 13:32:00;;;;;;;28.90;15.30;;;;;;;3.51;85.03;99836.81;420399;1314;109103;-40
2021/12/17 13:42:10;;;;;;;35.90;13.90;;;;;;;3.49;84.97;99856.84;420443;1313;96215;-41
2021/12/17 13:52:16;;;;;;;;;;;;;;;3.48;84.83;99867.98;420615;1313;110124;-39
2021/12/17 14:02:25;;;;;;;33.40;14.80;;;;;;;3.42;84.75;99864.58;420447;1312;109008;-41
2021/12/17 14:12:37;;;;;;;54.90;21.60;;;;;;;3.39;84.95;99872.48;420570;1313;96201;-40
2021/12/17 14:23:07;;;;;;;33.80;17.70;;;;;;;3.32;85.08;99872.63;420356;1313;109876;-41
2021/12/17 14:33:14;;;;;;;33.00;15.20;;;;;;;3.44;85.09;99879.78;420318;1314;109050;-40
2021/12/17 14:43:21;;;;;;;44.80;21.80;;;;;;;3.43;85.11;99872.42;420597;1313;96973;-40
2021/12/17 15:04:04;;;;;;;43.60;17.40;;;;;;;3.31;85.04;99885.02;420603;1313;108880;-39
2021/12/17 15:14:11;;;;;;;26.90;11.80;;;;;;;3.28;85.17;99894.84;420258;1312;107904;-41
2021/12/17 15:24:19;;;;;;;21.60;10.10;;;;;;;3.29;85.04;99890.72;420594;1312;96285;-41
2021/12/17 15:34:26;;;;;;;26.60;10.80;;;;;;;3.32;84.92;99896.19;420611;1313;109737;-41
2021/12/17 15:44:33;;;;;;;32.40;11.80;;;;;;;3.29;84.74;99889.59;420552;1313;109206;-41
2021/12/17 15:54:40;;;;;;;26.10;10.00;;;;;;;3.25;84.55;99893.27;421843;1310;108868;-40
2021/12/17 16:04:48;;;;;;;23.00;8.70;;;;;;;3.28;84.05;99902.02;422267;1309;96285;-40
2021/12/17 16:35:29;;;;;;;28.20;8.60;;;;;;;3.25;84.13;99893.05;422500;1309;108712;-44
2021/12/17 16:45:41;;;;;;;19.00;8.60;;;;;;;3.27;84.06;99899.85;422286;1309;96198;-40
2021/12/17 16:55:50;;;;;;;31.00;9.50;;;;;;;3.23;84.21;99905.42;422622;1310;109744;-41
2021/12/17 17:05:58;;;;;;;23.80;8.00;;;;;;;3.18;84.21;99915.54;421869;1309;108398;-40
2021/12/17 17:16:05;;;;;;;16.40;7.60;;;;;;;3.17;84.19;99921.25;422324;1309;96205;-40
2021/12/17 17:26:13;;;;;;;27.40;9.00;;;;;;;3.13;84.37;99941.54;421778;1309;109764;-41
2021/12/17 17:36:18;;;;;;;29.90;6.50;;;;;;;3.01;84.63;99945.40;422503;1310;108892;-40
2021/12/17 17:46:27;;;;;;;25.90;11.20;;;;;;;2.96;84.68;99942.23;421949;1309;96431;-40
2021/12/17 17:56:34;;;;;;;24.70;9.30;;;;;;;2.91;84.80;99936.46;421863;1309;96736;-40
2021/12/17 18:06:42;;;;;;;30.90;10.20;;;;;;;2.88;85.05;99944.85;422467;1309;108718;-40
2021/12/17 18:26:57;;;;;;;28.30;9.90;;;;;;;2.82;85.05;99940.11;422368;1309;96511;-41
2021/12/17 18:37:03;;;;;;;34.70;11.10;;;;;;;2.85;85.29;99928.73;422102;1310;96205;-40
2021/12/17 18:47:10;;;;;;;36.20;12.70;;;;;;;2.75;85.36;99931.89;422637;1309;109732;-41
2021/12/17 18:57:17;;;;;;;28.70;8.80;;;;;;;2.74;85.40;99930.66;421813;1309;107896;-43
2021/12/17 19:07:24;;;;;;;34.40;10.00;;;;;;;2.77;85.26;99946.17;422601;1309;96198;-40
2021/12/17 19:17:32;;;;;;;16.60;7.40;;;;;;;2.78;85.33;99968.71;422091;1309;109990;-41
2021/12/17 19:27:40;;;;;;;35.30;15.70;;;;;;;2.76;85.52;99980.73;422296;1310;109006;-40
2021/12/17 19:37:49;;;;;;;23.00;8.30;;;;;;;2.72;85.40;99987.42;422239;1309;96587;-40
2021/12/17 19:58:06;;;;;;;26.80;9.00;;;;;;;2.75;85.46;99996.70;421730;1309;109022;-41
2021/12/17 20:08:18;;;;;;;26.50;9.60;;;;;;;2.79;85.51;100007.50;417682;1309;5574142;-41
2021/12/17 20:18:25;;;;;;;23.80;7.60;;;;;;;2.70;85.47;100016.55;422229;1310;109781;-39
2021/12/17 20:28:35;;;;;;;22.60;7.40;;;;;;;2.73;85.43;100014.00;422303;1309;108824;-40
2021/12/17 20:38:43;;;;;;;15.60;6.70;;;;;;;2.75;85.55;100017.04;422221;1310;96273;-41
2021/12/17 20:48:50;;;;;;;19.70;6.70;;;;;;;2.76;85.70;100001.83;421575;1309;109804;-41
2021/12/17 20:58:57;;;;;;;25.80;9.00;;;;;;;2.71;85.61;100003.73;422197;1309;108533;-40
2021/12/17 21:09:02;;;;;;;22.60;7.10;;;;;;;2.67;85.67;100013.30;421601;1309;96580;-40
2021/12/17 21:19:11;;;;;;;15.60;5.90;;;;;;;2.72;85.49;100030.95;422236;1309;109395;-40
2021/12/17 21:29:20;;;;;;;24.60;6.60;;;;;;;2.74;85.65;100042.55;421946;1309;109049;-44
2021/12/17 21:39:28;;;;;;;30.10;7.40;;;;;;;2.69;85.65;100036.81;422245;1310;95539;-41
2021/12/17 21:59:41;;;;;;;21.90;7.20;;;;;;;2.65;85.43;100064.46;422400;1309;108937;-40
2021/12/17 22:09:48;;;;;;;11.50;4.70;;;;;;;2.63;85.45;100068.20;422109;1310;96798;-42
2021/12/17 22:20:07;;;;;;;17.40;7.70;;;;;;;2.56;85.51;100064.65;422289;1309;109788;-41
2021/12/17 22:30:15;;;;;;;19.90;7.30;;;;;;;2.50;85.45;100070.08;421612;1309;108871;-40
2021/12/17 22:50:37;;;;;;;;;;;;;;;2.50;85.38;100104.96;422086;1309;96597;-40
2021/12/17 23:01:01;;;;;;;19.00;7.50;;;;;;;2.45;85.53;100103.11;421931;1309;108962;-40
2021/12/17 23:11:09;;;;;;;26.70;6.30;;;;;;;2.36;85.64;100098.38;421776;1309;96186;-40
2021/12/17 23:21:17;;;;;;;15.80;6.40;;;;;;;2.33;85.63;100098.59;422346;1307;96451;-40
2021/12/17 23:31:25;;;;;;;20.90;7.00;;;;;;;2.31;85.64;100100.52;422360;1309;109801;-42
2021/12/17 23:41:33;;;;;;;30.90;10.90;;;;;;;2.30;85.76;100114.79;422037;1309;109727;-41
2021/12/17 23:51:41;;;;;;;23.00;7.50;;;;;;;2.25;85.89;100129.11;422124;1309;105545;-40
